sensor_id;sensor_type;location;lat;lon;timestamp;pressure;altitude;pressure_sealevel;temperature;humidity
31225;BME280;17847;31.524;74.366;2022-09-12T00:01:19;97995.03;;;26.96;77.99
31225;BME280;17847;31.524;74.366;2022-09-12T00:04:09;98003.78;;;26.98;77.64
31225;BME280;17847;31.524;74.366;2022-09-12T00:06:45;97999.53;;;27.01;77.69
31225;BME280;17847;31.524;74.366;2022-09-12T00:09:41;98006.75;;;26.93;77.72
31225;BME280;17847;31.524;74.366;2022-09-12T00:12:16;98006.75;;;26.93;77.76
31225;BME280;17847;31.524;74.366;2022-09-12T00:15:12;98000.31;;;26.89;78.00
31225;BME280;17847;31.524;74.366;2022-09-12T00:17:54;98000.69;;;27.00;77.96
31225;BME280;17847;31.524;74.366;2022-09-12T00:20:44;98003.56;;;27.03;77.48
31225;BME280;17847;31.524;74.366;2022-09-12T00:23:27;98004.84;;;27.06;77.26
31225;BME280;17847;31.524;74.366;2022-09-12T00:26:23;98001.63;;;27.04;77.40
31225;BME280;17847;31.524;74.366;2022-09-12T00:29:04;98001.25;;;26.93;78.02
31225;BME280;17847;31.524;74.366;2022-09-12T00:31:54;98010.22;;;27.02;77.48
31225;BME280;17847;31.524;74.366;2022-09-12T00:34:36;98018.38;;;26.99;77.37
31225;BME280;17847;31.524;74.366;2022-09-12T00:37:26;98018.16;;;27.04;77.38
31225;BME280;17847;31.524;74.366;2022-09-12T00:40:08;98014.69;;;26.94;77.33
31225;BME280;17847;31.524;74.366;2022-09-12T00:42:57;98015.75;;;27.02;77.77
31225;BME280;17847;31.524;74.366;2022-09-12T00:45:40;98015.59;;;26.99;77.77
31225;BME280;17847;31.524;74.366;2022-09-12T00:48:40;98000.66;;;26.87;77.61
31225;BME280;17847;31.524;74.366;2022-09-12T00:51:37;98003.41;;;26.87;77.69
31225;BME280;17847;31.524;74.366;2022-09-12T00:54:27;98005.00;;;26.88;77.59
31225;BME280;17847;31.524;74.366;2022-09-12T00:57:21;98011.34;;;26.89;77.90
31225;BME280;17847;31.524;74.366;2022-09-12T01:00:11;98015.75;;;27.02;77.57
31225;BME280;17847;31.524;74.366;2022-09-12T01:03:06;98019.50;;;26.98;77.76
31225;BME280;17847;31.524;74.366;2022-09-12T01:06:04;98018.22;;;26.95;78.12
31225;BME280;17847;31.524;74.366;2022-09-12T01:08:55;98027.41;;;26.99;77.69
31225;BME280;17847;31.524;74.366;2022-09-12T01:11:40;98021.19;;;26.90;77.94
31225;BME280;17847;31.524;74.366;2022-09-12T01:14:29;98029.72;;;26.97;77.91
31225;BME280;17847;31.524;74.366;2022-09-12T01:17:14;98027.97;;;26.92;78.14
31225;BME280;17847;31.524;74.366;2022-09-12T01:42:22;98044.78;;;27.12;77.92
31225;BME280;17847;31.524;74.366;2022-09-12T01:45:45;98049.97;;;27.13;77.84
31225;BME280;17847;31.524;74.366;2022-09-12T01:48:44;98062.50;;;26.90;78.76
31225;BME280;17847;31.524;74.366;2022-09-12T01:51:58;98074.50;;;27.06;77.44
31225;BME280;17847;31.524;74.366;2022-09-12T01:54:57;98070.16;;;27.39;77.15
31225;BME280;17847;31.524;74.366;2022-09-12T01:58:19;98069.38;;;26.96;77.48
31225;BME280;17847;31.524;74.366;2022-09-12T02:01:13;98059.75;;;27.23;77.08
31225;BME280;17847;31.524;74.366;2022-09-12T02:04:40;98064.91;;;27.70;75.93
31225;BME280;17847;31.524;74.366;2022-09-12T02:07:54;98066.63;;;27.87;75.40
31225;BME280;17847;31.524;74.366;2022-09-12T02:11:02;98051.94;;;27.83;75.35
31225;BME280;17847;31.524;74.366;2022-09-12T02:13:56;98061.56;;;27.65;75.09
31225;BME280;17847;31.524;74.366;2022-09-12T02:17:19;98060.78;;;28.26;73.66
31225;BME280;17847;31.524;74.366;2022-09-12T02:20:17;98053.31;;;28.14;74.55
31225;BME280;17847;31.524;74.366;2022-09-12T02:23:29;98064.81;;;28.28;73.36
31225;BME280;17847;31.524;74.366;2022-09-12T02:26:32;98057.25;;;28.13;73.63
31225;BME280;17847;31.524;74.366;2022-09-12T02:29:22;98061.03;;;27.96;74.27
31225;BME280;17847;31.524;74.366;2022-09-12T02:35:44;98058.44;;;28.53;72.90
31225;BME280;17847;31.524;74.366;2022-09-12T02:41:25;98059.59;;;28.92;72.32
31225;BME280;17847;31.524;74.366;2022-09-12T02:44:02;98064.81;;;29.09;70.91
31225;BME280;17847;31.524;74.366;2022-09-12T02:47:45;98060.88;;;28.29;73.24
31225;BME280;17847;31.524;74.366;2022-09-12T02:50:08;98051.03;;;28.16;73.29
31225;BME280;17847;31.524;74.366;2022-09-12T02:53:06;98053.94;;;29.01;71.68
31225;BME280;17847;31.524;74.366;2022-09-12T02:56:04;98058.13;;;28.42;72.98
31225;BME280;17847;31.524;74.366;2022-09-12T02:59:06;98052.81;;;28.49;72.94
31225;BME280;17847;31.524;74.366;2022-09-12T03:21:27;98073.97;;;30.02;67.35
31225;BME280;17847;31.524;74.366;2022-09-12T03:27:38;98083.44;;;29.85;66.93
31225;BME280;17847;31.524;74.366;2022-09-12T03:30:28;98083.06;;;30.02;67.88
31225;BME280;17847;31.524;74.366;2022-09-12T03:33:15;98089.16;;;30.28;67.69
31225;BME280;17847;31.524;74.366;2022-09-12T03:36:04;98085.91;;;30.57;66.09
31225;BME280;17847;31.524;74.366;2022-09-12T03:38:46;98091.41;;;30.22;66.76
31225;BME280;17847;31.524;74.366;2022-09-12T03:41:36;98092.16;;;30.54;66.63
31225;BME280;17847;31.524;74.366;2022-09-12T03:44:22;98097.72;;;30.74;66.13
31225;BME280;17847;31.524;74.366;2022-09-12T03:47:11;98092.84;;;30.87;65.50
31225;BME280;17847;31.524;74.366;2022-09-12T03:49:53;98097.38;;;30.40;67.43
31225;BME280;17847;31.524;74.366;2022-09-12T03:52:42;98088.69;;;30.77;65.81
31225;BME280;17847;31.524;74.366;2022-09-12T03:55:31;98089.03;;;30.56;65.42
31225;BME280;17847;31.524;74.366;2022-09-12T03:58:29;98095.84;;;30.78;65.54
31225;BME280;17847;31.524;74.366;2022-09-12T04:01:18;98084.56;;;31.06;65.31
31225;BME280;17847;31.524;74.366;2022-09-12T04:04:05;98086.72;;;31.16;62.06
31225;BME280;17847;31.524;74.366;2022-09-12T04:06:47;98090.50;;;31.28;62.77
31225;BME280;17847;31.524;74.366;2022-09-12T04:09:37;98089.75;;;31.08;62.28
31225;BME280;17847;31.524;74.366;2022-09-12T04:12:20;98087.34;;;31.68;61.26
31225;BME280;17847;31.524;74.366;2022-09-12T04:15:15;98091.34;;;31.28;60.61
31225;BME280;17847;31.524;74.366;2022-09-12T04:17:59;98101.59;;;30.89;62.82
31225;BME280;17847;31.524;74.366;2022-09-12T04:20:47;98091.81;;;31.53;62.02
31225;BME280;17847;31.524;74.366;2022-09-12T04:23:29;98095.16;;;31.86;61.58
31225;BME280;17847;31.524;74.366;2022-09-12T04:26:14;98091.84;;;31.76;61.34
31225;BME280;17847;31.524;74.366;2022-09-12T04:29:05;98088.78;;;32.35;58.53
31225;BME280;17847;31.524;74.366;2022-09-12T04:31:42;98089.97;;;32.34;58.92
31225;BME280;17847;31.524;74.366;2022-09-12T04:34:53;98092.44;;;32.66;57.52
31225;BME280;17847;31.524;74.366;2022-09-12T04:37:28;98084.63;;;32.22;58.09
31225;BME280;17847;31.524;74.366;2022-09-12T04:40:24;98085.38;;;33.40;55.94
31225;BME280;17847;31.524;74.366;2022-09-12T04:43:08;98092.56;;;33.82;56.87
31225;BME280;17847;31.524;74.366;2022-09-12T04:46:09;98094.94;;;33.80;53.84
31225;BME280;17847;31.524;74.366;2022-09-12T04:48:46;98092.75;;;34.03;54.02
31225;BME280;17847;31.524;74.366;2022-09-12T04:51:43;98081.22;;;33.60;53.29
31225;BME280;17847;31.524;74.366;2022-09-12T04:54:34;98079.88;;;34.36;53.34
31225;BME280;17847;31.524;74.366;2022-09-12T04:57:15;98081.00;;;34.28;53.40
31225;BME280;17847;31.524;74.366;2022-09-12T05:00:05;98077.16;;;34.43;53.92
31225;BME280;17847;31.524;74.366;2022-09-12T05:02:42;98076.19;;;34.95;53.68
31225;BME280;17847;31.524;74.366;2022-09-12T05:05:38;98076.38;;;35.52;49.71
31225;BME280;17847;31.524;74.366;2022-09-12T05:08:44;98075.41;;;34.94;50.38
31225;BME280;17847;31.524;74.366;2022-09-12T05:11:51;98069.63;;;35.75;51.49
31225;BME280;17847;31.524;74.366;2022-09-12T05:15:02;98070.31;;;35.14;50.68
31225;BME280;17847;31.524;74.366;2022-09-12T05:18:20;98071.16;;;35.33;49.67
31225;BME280;17847;31.524;74.366;2022-09-12T05:21:18;98066.78;;;35.46;50.45
31225;BME280;17847;31.524;74.366;2022-09-12T05:24:35;98053.88;;;34.91;53.52
31225;BME280;17847;31.524;74.366;2022-09-12T05:27:35;98049.66;;;35.65;50.90
31225;BME280;17847;31.524;74.366;2022-09-12T05:31:27;98040.09;;;36.31;50.39
31225;BME280;17847;31.524;74.366;2022-09-12T05:34:31;98036.16;;;35.82;50.73
31225;BME280;17847;31.524;74.366;2022-09-12T05:37:42;98029.75;;;36.10;53.67
31225;BME280;17847;31.524;74.366;2022-09-12T05:40:45;98025.69;;;36.43;50.33
31225;BME280;17847;31.524;74.366;2022-09-12T05:44:02;98025.25;;;36.56;51.30
31225;BME280;17847;31.524;74.366;2022-09-12T05:46:59;98020.44;;;36.60;51.03
31225;BME280;17847;31.524;74.366;2022-09-12T05:50:15;98014.94;;;36.31;49.04
31225;BME280;17847;31.524;74.366;2022-09-12T05:53:13;98023.25;;;36.60;49.29
31225;BME280;17847;31.524;74.366;2022-09-12T05:56:39;98015.72;;;36.39;51.34
31225;BME280;17847;31.524;74.366;2022-09-12T05:59:59;98016.13;;;36.34;49.60
31225;BME280;17847;31.524;74.366;2022-09-12T06:03:02;98000.63;;;36.00;51.59
31225;BME280;17847;31.524;74.366;2022-09-12T06:06:13;98002.66;;;35.89;50.48
31225;BME280;17847;31.524;74.366;2022-09-12T06:09:16;97998.56;;;36.37;49.72
31225;BME280;17847;31.524;74.366;2022-09-12T06:12:28;97997.31;;;36.49;48.98
31225;BME280;17847;31.524;74.366;2022-09-12T06:15:31;97996.63;;;35.98;52.47
31225;BME280;17847;31.524;74.366;2022-09-12T06:18:48;97991.66;;;36.63;48.21
31225;BME280;17847;31.524;74.366;2022-09-12T06:21:55;97987.69;;;36.57;48.85
31225;BME280;17847;31.524;74.366;2022-09-12T06:25:06;97988.22;;;36.12;49.87
31225;BME280;17847;31.524;74.366;2022-09-12T06:28:10;97995.44;;;35.99;51.41
31225;BME280;17847;31.524;74.366;2022-09-12T06:31:25;97984.59;;;36.40;49.84
31225;BME280;17847;31.524;74.366;2022-09-12T06:34:31;97981.78;;;36.40;47.96
31225;BME280;17847;31.524;74.366;2022-09-12T06:37:43;97987.78;;;36.35;50.04
31225;BME280;17847;31.524;74.366;2022-09-12T06:40:48;97977.38;;;36.47;48.94
31225;BME280;17847;31.524;74.366;2022-09-12T06:44:04;97977.91;;;35.66;50.47
31225;BME280;17847;31.524;74.366;2022-09-12T06:47:12;97976.50;;;36.64;50.57
31225;BME280;17847;31.524;74.366;2022-09-12T06:50:29;97972.19;;;36.38;49.61
31225;BME280;17847;31.524;74.366;2022-09-12T06:53:32;97967.34;;;36.53;50.10
31225;BME280;17847;31.524;74.366;2022-09-12T06:56:48;97972.19;;;36.41;49.46
31225;BME280;17847;31.524;74.366;2022-09-12T06:59:50;97967.84;;;36.30;51.16
31225;BME280;17847;31.524;74.366;2022-09-12T07:02:59;97963.81;;;36.41;48.92
31225;BME280;17847;31.524;74.366;2022-09-12T07:05:55;97964.16;;;36.65;49.75
31225;BME280;17847;31.524;74.366;2022-09-12T07:09:14;97962.13;;;36.66;48.59
31225;BME280;17847;31.524;74.366;2022-09-12T07:12:18;97954.78;;;35.55;48.75
31225;BME280;17847;31.524;74.366;2022-09-12T07:15:34;97954.69;;;36.23;49.35
31225;BME280;17847;31.524;74.366;2022-09-12T07:18:33;97955.81;;;36.43;47.22
31225;BME280;17847;31.524;74.366;2022-09-12T07:21:51;97951.34;;;36.64;47.97
31225;BME280;17847;31.524;74.366;2022-09-12T07:24:52;97947.91;;;36.24;48.37
31225;BME280;17847;31.524;74.366;2022-09-12T07:28:07;97938.66;;;36.41;47.85
31225;BME280;17847;31.524;74.366;2022-09-12T07:31:09;97939.50;;;36.38;51.07
31225;BME280;17847;31.524;74.366;2022-09-12T07:34:26;97926.47;;;35.85;49.93
31225;BME280;17847;31.524;74.366;2022-09-12T07:37:31;97931.53;;;36.30;47.37
31225;BME280;17847;31.524;74.366;2022-09-12T07:40:40;97922.59;;;36.63;50.50
31225;BME280;17847;31.524;74.366;2022-09-12T07:43:44;97922.66;;;36.45;47.67
31225;BME280;17847;31.524;74.366;2022-09-12T07:46:54;97916.63;;;36.58;49.41
31225;BME280;17847;31.524;74.366;2022-09-12T07:49:58;97912.25;;;36.50;48.35
31225;BME280;17847;31.524;74.366;2022-09-12T07:53:11;97904.31;;;36.44;47.91
31225;BME280;17847;31.524;74.366;2022-09-12T07:56:21;97904.44;;;36.09;49.05
31225;BME280;17847;31.524;74.366;2022-09-12T07:59:39;97900.44;;;36.24;46.98
31225;BME280;17847;31.524;74.366;2022-09-12T08:02:51;97897.72;;;35.92;48.73
31225;BME280;17847;31.524;74.366;2022-09-12T08:06:09;97895.53;;;36.46;51.25
31225;BME280;17847;31.524;74.366;2022-09-12T08:09:13;97898.75;;;36.37;47.59
31225;BME280;17847;31.524;74.366;2022-09-12T08:12:23;97884.84;;;36.26;50.11
31225;BME280;17847;31.524;74.366;2022-09-12T08:15:26;97885.94;;;36.47;49.42
31225;BME280;17847;31.524;74.366;2022-09-12T08:18:36;97878.88;;;36.21;49.17
31225;BME280;17847;31.524;74.366;2022-09-12T08:21:40;97874.91;;;36.07;47.39
31225;BME280;17847;31.524;74.366;2022-09-12T08:24:57;97871.53;;;36.56;49.02
31225;BME280;17847;31.524;74.366;2022-09-12T08:27:53;97876.09;;;36.14;49.49
31225;BME280;17847;31.524;74.366;2022-09-12T08:31:14;97868.94;;;36.05;48.94
31225;BME280;17847;31.524;74.366;2022-09-12T08:34:11;97864.06;;;36.31;49.30
31225;BME280;17847;31.524;74.366;2022-09-12T08:37:29;97861.75;;;36.12;48.95
31225;BME280;17847;31.524;74.366;2022-09-12T08:40:26;97857.06;;;35.83;47.13
31225;BME280;17847;31.524;74.366;2022-09-12T08:50:32;97852.56;;;36.07;48.13
31225;BME280;17847;31.524;74.366;2022-09-12T08:53:29;97851.03;;;35.96;48.62
31225;BME280;17847;31.524;74.366;2022-09-12T08:56:48;97842.72;;;35.81;46.85
31225;BME280;17847;31.524;74.366;2022-09-12T08:59:52;97843.88;;;35.95;50.34
31225;BME280;17847;31.524;74.366;2022-09-12T09:18:07;97830.41;;;35.57;50.32
31225;BME280;17847;31.524;74.366;2022-09-12T09:21:59;97830.72;;;35.92;47.61
31225;BME280;17847;31.524;74.366;2022-09-12T09:25:08;97825.59;;;35.79;48.55
31225;BME280;17847;31.524;74.366;2022-09-12T09:31:37;97824.88;;;35.39;50.12
31225;BME280;17847;31.524;74.366;2022-09-12T09:34:56;97822.88;;;35.47;50.30
31225;BME280;17847;31.524;74.366;2022-09-12T09:38:14;97808.06;;;35.68;48.68
31225;BME280;17847;31.524;74.366;2022-09-12T09:41:44;97801.28;;;35.69;46.08
31225;BME280;17847;31.524;74.366;2022-09-12T09:44:55;97800.88;;;35.60;48.07
31225;BME280;17847;31.524;74.366;2022-09-12T09:48:23;97790.47;;;35.82;47.21
31225;BME280;17847;31.524;74.366;2022-09-12T09:51:37;97779.84;;;35.30;49.29
31225;BME280;17847;31.524;74.366;2022-09-12T09:54:51;97783.34;;;35.56;47.37
31225;BME280;17847;31.524;74.366;2022-09-12T09:58:05;97775.41;;;35.51;47.06
31225;BME280;17847;31.524;74.366;2022-09-12T10:01:23;97769.38;;;35.70;46.79
31225;BME280;17847;31.524;74.366;2022-09-12T10:04:33;97769.00;;;35.72;48.25
31225;BME280;17847;31.524;74.366;2022-09-12T10:07:51;97760.22;;;35.62;50.56
31225;BME280;17847;31.524;74.366;2022-09-12T10:14:38;97752.63;;;35.66;49.47
31225;BME280;17847;31.524;74.366;2022-09-12T10:17:45;97750.69;;;35.56;50.69
31225;BME280;17847;31.524;74.366;2022-09-12T10:21:14;97745.03;;;35.67;52.19
31225;BME280;17847;31.524;74.366;2022-09-12T10:24:28;97741.84;;;35.65;50.61
31225;BME280;17847;31.524;74.366;2022-09-12T10:27:42;97737.91;;;35.62;51.07
31225;BME280;17847;31.524;74.366;2022-09-12T10:30:51;97733.19;;;35.45;53.87
31225;BME280;17847;31.524;74.366;2022-09-12T10:34:03;97735.59;;;35.39;54.43
31225;BME280;17847;31.524;74.366;2022-09-12T10:37:33;97728.47;;;35.24;53.34
31225;BME280;17847;31.524;74.366;2022-09-12T10:41:06;97727.66;;;35.16;53.74
31225;BME280;17847;31.524;74.366;2022-09-12T10:44:15;97729.63;;;35.37;55.15
31225;BME280;17847;31.524;74.366;2022-09-12T10:47:33;97722.81;;;35.49;53.91
31225;BME280;17847;31.524;74.366;2022-09-12T10:50:42;97729.56;;;35.44;55.50
31225;BME280;17847;31.524;74.366;2022-09-12T10:54:00;97725.28;;;35.22;53.76
31225;BME280;17847;31.524;74.366;2022-09-12T11:00:39;97715.69;;;35.30;54.04
31225;BME280;17847;31.524;74.366;2022-09-12T11:11:30;97707.34;;;35.23;54.75
31225;BME280;17847;31.524;74.366;2022-09-12T11:25:17;97710.22;;;34.80;54.17
31225;BME280;17847;31.524;74.366;2022-09-12T13:41:56;97704.56;;;32.06;63.78
31225;BME280;17847;31.524;74.366;2022-09-12T13:45:36;97695.97;;;32.22;62.61
31225;BME280;17847;31.524;74.366;2022-09-12T13:48:59;97700.78;;;32.28;61.29
31225;BME280;17847;31.524;74.366;2022-09-12T13:52:20;97703.13;;;32.23;61.65
31225;BME280;17847;31.524;74.366;2022-09-12T13:55:45;97718.94;;;32.18;61.57
31225;BME280;17847;31.524;74.366;2022-09-12T13:58:59;97708.13;;;32.06;61.19
31225;BME280;17847;31.524;74.366;2022-09-12T14:02:21;97716.91;;;32.12;62.37
31225;BME280;17847;31.524;74.366;2022-09-12T14:05:26;97720.94;;;32.22;62.30
31225;BME280;17847;31.524;74.366;2022-09-12T14:08:45;97721.72;;;32.18;63.20
31225;BME280;17847;31.524;74.366;2022-09-12T14:11:57;97724.84;;;32.13;61.97
31225;BME280;17847;31.524;74.366;2022-09-12T14:15:25;97724.00;;;32.09;64.36
31225;BME280;17847;31.524;74.366;2022-09-12T14:18:37;97723.19;;;32.05;63.51
31225;BME280;17847;31.524;74.366;2022-09-12T14:21:56;97725.97;;;32.05;63.58
31225;BME280;17847;31.524;74.366;2022-09-12T14:24:54;97725.41;;;31.92;63.57
31225;BME280;17847;31.524;74.366;2022-09-12T14:28:13;97740.28;;;31.77;62.92
31225;BME280;17847;31.524;74.366;2022-09-12T14:31:29;97747.03;;;31.79;63.84
31225;BME280;17847;31.524;74.366;2022-09-12T14:38:24;97753.22;;;31.99;63.79
31225;BME280;17847;31.524;74.366;2022-09-12T14:41:49;97756.00;;;31.66;64.79
31225;BME280;17847;31.524;74.366;2022-09-12T14:45:23;97757.78;;;31.81;64.97
31225;BME280;17847;31.524;74.366;2022-09-12T14:48:49;97765.66;;;31.79;64.29
31225;BME280;17847;31.524;74.366;2022-09-12T14:52:32;97772.94;;;31.91;65.37
31225;BME280;17847;31.524;74.366;2022-09-12T14:55:32;97783.97;;;31.84;64.52
31225;BME280;17847;31.524;74.366;2022-09-12T14:58:49;97781.69;;;31.93;64.27
31225;BME280;17847;31.524;74.366;2022-09-12T15:05:31;97777.66;;;31.87;63.81
31225;BME280;17847;31.524;74.366;2022-09-12T15:08:41;97777.19;;;31.81;62.82
31225;BME280;17847;31.524;74.366;2022-09-12T15:11:45;97775.97;;;31.78;62.63
31225;BME280;17847;31.524;74.366;2022-09-12T15:15:06;97780.78;;;31.82;61.91
31225;BME280;17847;31.524;74.366;2022-09-12T15:18:15;97787.88;;;31.79;62.66
31225;BME280;17847;31.524;74.366;2022-09-12T15:21:25;97798.06;;;31.71;62.63
31225;BME280;17847;31.524;74.366;2022-09-12T15:24:28;97805.56;;;31.67;61.55
31225;BME280;17847;31.524;74.366;2022-09-12T15:27:52;97811.53;;;31.69;62.08
31225;BME280;17847;31.524;74.366;2022-09-12T15:30:55;97813.47;;;31.65;62.66
31225;BME280;17847;31.524;74.366;2022-09-12T15:34:16;97816.56;;;31.60;62.85
31225;BME280;17847;31.524;74.366;2022-09-12T15:37:15;97819.25;;;31.53;61.62
31225;BME280;17847;31.524;74.366;2022-09-12T15:40:48;97820.84;;;31.54;61.81
31225;BME280;17847;31.524;74.366;2022-09-12T15:43:56;97827.53;;;31.49;60.57
31225;BME280;17847;31.524;74.366;2022-09-12T15:47:14;97837.47;;;31.54;62.23
31225;BME280;17847;31.524;74.366;2022-09-12T15:50:30;97840.47;;;31.41;61.93
31225;BME280;17847;31.524;74.366;2022-09-12T15:53:51;97848.59;;;31.31;62.48
31225;BME280;17847;31.524;74.366;2022-09-12T15:57:07;97849.81;;;31.33;62.19
31225;BME280;17847;31.524;74.366;2022-09-12T16:00:11;97854.00;;;31.47;61.21
31225;BME280;17847;31.524;74.366;2022-09-12T16:03:28;97847.59;;;31.42;61.94
31225;BME280;17847;31.524;74.366;2022-09-12T16:06:26;97850.72;;;31.41;62.18
31225;BME280;17847;31.524;74.366;2022-09-12T16:09:41;97849.44;;;31.35;63.21
31225;BME280;17847;31.524;74.366;2022-09-12T16:12:39;97851.50;;;31.38;62.72
31225;BME280;17847;31.524;74.366;2022-09-12T16:15:56;97859.56;;;31.47;63.02
31225;BME280;17847;31.524;74.366;2022-09-12T16:18:54;97862.63;;;31.41;63.03
31225;BME280;17847;31.524;74.366;2022-09-12T16:22:11;97857.81;;;31.38;63.07
31225;BME280;17847;31.524;74.366;2022-09-12T16:25:16;97854.88;;;31.28;63.47
31225;BME280;17847;31.524;74.366;2022-09-12T16:28:21;97850.59;;;31.30;64.95
31225;BME280;17847;31.524;74.366;2022-09-12T16:31:33;97860.06;;;31.29;64.54
31225;BME280;17847;31.524;74.366;2022-09-12T16:34:32;97861.56;;;31.23;64.89
31225;BME280;17847;31.524;74.366;2022-09-12T16:37:51;97867.88;;;31.23;64.74
31225;BME280;17847;31.524;74.366;2022-09-12T16:40:47;97866.38;;;31.26;65.28
31225;BME280;17847;31.524;74.366;2022-09-12T16:44:04;97861.56;;;31.23;66.26
31225;BME280;17847;31.524;74.366;2022-09-12T16:47:01;97869.03;;;31.19;66.23
31225;BME280;17847;31.524;74.366;2022-09-12T16:50:18;97865.41;;;31.15;66.16
31225;BME280;17847;31.524;74.366;2022-09-12T16:53:14;97870.88;;;31.11;67.79
31225;BME280;17847;31.524;74.366;2022-09-12T16:56:29;97870.81;;;31.08;67.37
31225;BME280;17847;31.524;74.366;2022-09-12T16:59:46;97879.13;;;31.08;67.19
31225;BME280;17847;31.524;74.366;2022-09-12T17:02:50;97886.59;;;31.03;67.47
31225;BME280;17847;31.524;74.366;2022-09-12T17:06:12;97891.69;;;31.01;67.73
31225;BME280;17847;31.524;74.366;2022-09-12T17:09:16;97886.59;;;31.03;67.64
31225;BME280;17847;31.524;74.366;2022-09-12T17:12:27;97886.53;;;31.00;67.14
31225;BME280;17847;31.524;74.366;2022-09-12T17:15:31;97884.53;;;31.00;67.29
31225;BME280;17847;31.524;74.366;2022-09-12T17:18:44;97887.31;;;31.00;66.40
31225;BME280;17847;31.524;74.366;2022-09-12T17:21:48;97885.72;;;30.99;66.08
31225;BME280;17847;31.524;74.366;2022-09-12T17:24:59;97894.84;;;31.00;66.50
31225;BME280;17847;31.524;74.366;2022-09-12T17:28:05;97890.44;;;30.99;66.36
31225;BME280;17847;31.524;74.366;2022-09-12T17:31:16;97893.97;;;30.96;66.76
31225;BME280;17847;31.524;74.366;2022-09-12T17:34:19;97887.94;;;30.90;67.23
31225;BME280;17847;31.524;74.366;2022-09-12T17:37:34;97891.16;;;30.92;66.08
31225;BME280;17847;31.524;74.366;2022-09-12T17:40:38;97891.50;;;30.91;67.04
31225;BME280;17847;31.524;74.366;2022-09-12T17:44:00;97895.06;;;30.91;66.26
31225;BME280;17847;31.524;74.366;2022-09-12T17:47:04;97890.97;;;30.85;66.72
31225;BME280;17847;31.524;74.366;2022-09-12T17:50:21;97890.97;;;30.85;66.24
31225;BME280;17847;31.524;74.366;2022-09-12T17:53:28;97892.16;;;30.84;65.77
31225;BME280;17847;31.524;74.366;2022-09-12T17:56:47;97889.25;;;30.77;65.05
31225;BME280;17847;31.524;74.366;2022-09-12T17:59:51;97889.25;;;30.77;65.31
31225;BME280;17847;31.524;74.366;2022-09-12T18:03:04;97888.91;;;30.78;66.34
31225;BME280;17847;31.524;74.366;2022-09-12T18:06:08;97891.72;;;30.82;65.91
31225;BME280;17847;31.524;74.366;2022-09-12T18:09:20;97903.03;;;30.73;66.64
31225;BME280;17847;31.524;74.366;2022-09-12T18:12:25;97900.28;;;30.73;66.73
31225;BME280;17847;31.524;74.366;2022-09-12T18:15:42;97897.88;;;30.72;66.57
31225;BME280;17847;31.524;74.366;2022-09-12T18:18:38;97904.13;;;30.69;67.07
31225;BME280;17847;31.524;74.366;2022-09-12T18:21:57;97901.25;;;30.61;66.82
31225;BME280;17847;31.524;74.366;2022-09-12T18:24:53;97905.47;;;30.55;67.46
31225;BME280;17847;31.524;74.366;2022-09-12T18:28:10;97902.34;;;30.57;68.24
31225;BME280;17847;31.524;74.366;2022-09-12T18:31:17;97902.22;;;30.50;68.24
31225;BME280;17847;31.524;74.366;2022-09-12T18:34:33;97896.69;;;30.50;67.79
31225;BME280;17847;31.524;74.366;2022-09-12T18:37:29;97906.22;;;30.52;67.42
31225;BME280;17847;31.524;74.366;2022-09-12T18:40:45;97907.00;;;30.53;67.72
31225;BME280;17847;31.524;74.366;2022-09-12T18:43:41;97911.59;;;30.45;68.35
31225;BME280;17847;31.524;74.366;2022-09-12T18:46:57;97900.31;;;30.34;69.10
31225;BME280;17847;31.524;74.366;2022-09-12T18:50:00;97906.84;;;30.26;69.27
31225;BME280;17847;31.524;74.366;2022-09-12T18:52:53;97914.06;;;30.31;69.42
31225;BME280;17847;31.524;74.366;2022-09-12T18:55:36;97911.31;;;30.31;70.08
31225;BME280;17847;31.524;74.366;2022-09-12T18:58:24;97912.75;;;30.24;70.08
31225;BME280;17847;31.524;74.366;2022-09-12T19:04:01;97923.69;;;30.17;70.65
31225;BME280;17847;31.524;74.366;2022-09-12T19:06:47;97932.00;;;30.17;71.66
31225;BME280;17847;31.524;74.366;2022-09-12T19:09:35;97931.25;;;30.20;71.32
31225;BME280;17847;31.524;74.366;2022-09-12T19:12:18;97923.97;;;30.12;71.05
31225;BME280;17847;31.524;74.366;2022-09-12T19:15:14;97919.91;;;30.06;71.56
31225;BME280;17847;31.524;74.366;2022-09-12T19:18:10;97916.69;;;30.04;71.75
31225;BME280;17847;31.524;74.366;2022-09-12T19:20:52;97918.50;;;29.96;72.00
31225;BME280;17847;31.524;74.366;2022-09-12T19:23:41;97928.03;;;29.99;72.94
31225;BME280;17847;31.524;74.366;2022-09-12T19:26:19;97924.81;;;29.97;72.79
31225;BME280;17847;31.524;74.366;2022-09-12T19:29:14;97924.25;;;30.07;72.14
31225;BME280;17847;31.524;74.366;2022-09-12T19:31:56;97921.38;;;29.84;72.26
31225;BME280;17847;31.524;74.366;2022-09-12T19:34:45;97924.81;;;29.97;73.17
31225;BME280;17847;31.524;74.366;2022-09-12T19:37:28;97922.25;;;29.88;72.53
31225;BME280;17847;31.524;74.366;2022-09-12T19:40:23;97925.94;;;29.76;73.61
31225;BME280;17847;31.524;74.366;2022-09-12T19:43:06;97932.66;;;29.75;72.94
31225;BME280;17847;31.524;74.366;2022-09-12T19:45:55;97928.34;;;29.78;73.77
31225;BME280;17847;31.524;74.366;2022-09-12T19:48:38;97928.28;;;29.74;73.47
31225;BME280;17847;31.524;74.366;2022-09-12T19:51:27;97942.09;;;29.74;74.20
31225;BME280;17847;31.524;74.366;2022-09-12T19:54:10;97940.50;;;29.73;74.57
31225;BME280;17847;31.524;74.366;2022-09-12T19:56:59;97935.22;;;29.68;74.46
31225;BME280;17847;31.524;74.366;2022-09-12T19:59:54;97942.53;;;29.76;74.85
31225;BME280;17847;31.524;74.366;2022-09-12T20:02:32;97944.88;;;29.74;74.26
31225;BME280;17847;31.524;74.366;2022-09-12T20:05:28;97951.56;;;29.73;74.53
31225;BME280;17847;31.524;74.366;2022-09-12T20:08:16;97939.34;;;29.74;75.08